WUK243 EGGW-LWSK
Flight info
| Callsign | WUK243 |
|---|---|
| Flight time | N/A |
| Altitude | 37000 |
| Route | MATCH Q295 BRAIN P44 DAGGA M85 ITVIP L10 DVR UL9 KONAN DCT KOK DCT RITAX DCT BANUX DCT BABEG DCT KUMOM DCT DEVUL DCT REMSO DCT MEDUX UM867 KOGAT |
| Aircraft | A321/M-SDE3FGHIRWY/LB1 |
Departure
| Time | 2026-05-04 10:02 |
|---|---|
| Airport | London Luton Airport (EGGW) |
Arrival
| Time | N/A |
|---|---|
| Airport | Skopje International Airport (LWSK) |
| Time | Latitude | Longitude | Altitude | Speed | Heading |
|---|---|---|---|---|---|
| 2026-05-04 09:27 | 51.87980 | -0.37206 | 509 ft | 0 kts | 161° |
| 2026-05-04 09:35 | 51.87981 | -0.37206 | 509 ft | 0 kts | 161° |
| 2026-05-04 09:51 | 51.88000 | -0.37217 | 508 ft | 4 kts | 161° |
| 2026-05-04 09:51 | 51.88020 | -0.37228 | 508 ft | 4 kts | 144° |
| 2026-05-04 09:51 | 51.88031 | -0.37257 | 508 ft | 4 kts | 83° |
| 2026-05-04 09:51 | 51.88024 | -0.37297 | 508 ft | 4 kts | 72° |
| 2026-05-04 09:52 | 51.88016 | -0.37338 | 508 ft | 4 kts | 72° |
| 2026-05-04 09:52 | 51.88008 | -0.37380 | 508 ft | 4 kts | 72° |
| 2026-05-04 09:52 | 51.88004 | -0.37397 | 508 ft | 1 kts | 72° |
| 2026-05-04 09:55 | 51.88007 | -0.37383 | 508 ft | 4 kts | 72° |
| 2026-05-04 09:55 | 51.88022 | -0.37310 | 508 ft | 9 kts | 72° |
| 2026-05-04 09:55 | 51.88042 | -0.37192 | 508 ft | 12 kts | 87° |
| 2026-05-04 09:56 | 51.87982 | -0.37113 | 509 ft | 12 kts | 162° |
| 2026-05-04 09:56 | 51.87896 | -0.37067 | 509 ft | 14 kts | 161° |
| 2026-05-04 09:56 | 51.87816 | -0.37024 | 514 ft | 11 kts | 161° |
| 2026-05-04 09:56 | 51.87723 | -0.36974 | 521 ft | 17 kts | 162° |
| 2026-05-04 09:57 | 51.87630 | -0.36981 | 523 ft | 15 kts | 236° |
| 2026-05-04 09:57 | 51.87598 | -0.37150 | 522 ft | 16 kts | 254° |
| 2026-05-04 09:57 | 51.87580 | -0.37334 | 522 ft | 16 kts | 276° |
| 2026-05-04 09:57 | 51.87566 | -0.37445 | 522 ft | 9 kts | 223° |
| 2026-05-04 09:58 | 51.87508 | -0.37518 | 522 ft | 11 kts | 237° |
| 2026-05-04 09:58 | 51.87484 | -0.37637 | 523 ft | 12 kts | 258° |
| 2026-05-04 09:58 | 51.87456 | -0.37811 | 522 ft | 21 kts | 254° |
| 2026-05-04 10:00 | 51.87268 | -0.37974 | 524 ft | 18 kts | 73° |
| 2026-05-04 10:00 | 51.87369 | -0.37389 | 523 ft | 93 kts | 74° |
| 2026-05-04 10:02 | 51.89552 | -0.23371 | 3374 ft | 253 kts | 99° |
| 2026-05-04 10:04 | 51.78616 | -0.13247 | 6316 ft | 271 kts | 157° |
| 2026-05-04 10:04 | 51.76938 | -0.11837 | 7122 ft | 275 kts | 142° |
| 2026-05-04 10:04 | 51.75743 | -0.09475 | 7859 ft | 281 kts | 116° |
| 2026-05-04 10:04 | 51.75334 | -0.06388 | 8606 ft | 287 kts | 88° |
| 2026-05-04 10:05 | 51.75559 | -0.03191 | 9372 ft | 291 kts | 83° |
| 2026-05-04 10:05 | 51.75838 | 0.00061 | 10111 ft | 295 kts | 83° |
| 2026-05-04 10:05 | 51.76133 | 0.03458 | 10407 ft | 317 kts | 83° |
| 2026-05-04 10:05 | 51.76445 | 0.07109 | 10672 ft | 337 kts | 83° |
| 2026-05-04 10:06 | 51.76765 | 0.10896 | 11270 ft | 344 kts | 83° |
| 2026-05-04 10:06 | 51.77088 | 0.14750 | 11968 ft | 348 kts | 83° |
| 2026-05-04 10:06 | 51.77408 | 0.18638 | 12676 ft | 352 kts | 83° |
| 2026-05-04 10:08 | 51.79359 | 0.42882 | 16647 ft | 372 kts | 84° |
| 2026-05-04 10:08 | 51.79689 | 0.47050 | 17300 ft | 376 kts | 84° |
| 2026-05-04 10:08 | 51.80021 | 0.51268 | 17936 ft | 380 kts | 84° |
| 2026-05-04 10:08 | 51.80353 | 0.55513 | 18544 ft | 384 kts | 84° |
| 2026-05-04 10:09 | 51.80689 | 0.59812 | 18912 ft | 387 kts | 84° |
| 2026-05-04 10:09 | 51.81026 | 0.64129 | 19002 ft | 388 kts | 84° |
| 2026-05-04 10:09 | 51.81297 | 0.68470 | 19024 ft | 387 kts | 92° |
| 2026-05-04 10:09 | 51.80931 | 0.72722 | 19025 ft | 383 kts | 109° |
| 2026-05-04 10:10 | 51.80281 | 0.75358 | 19021 ft | 380 kts | 120° |
| 2026-05-04 10:10 | 51.78786 | 0.78827 | 19028 ft | 375 kts | 135° |
| 2026-05-04 10:10 | 51.76039 | 0.82188 | 19029 ft | 370 kts | 156° |
| 2026-05-04 10:10 | 51.73619 | 0.83602 | 19288 ft | 372 kts | 166° |
| 2026-05-04 10:11 | 51.71971 | 0.84386 | 19700 ft | 373 kts | 165° |
| 2026-05-04 10:11 | 51.69476 | 0.85598 | 20292 ft | 376 kts | 165° |
| 2026-05-04 10:11 | 51.66962 | 0.86834 | 20886 ft | 379 kts | 165° |
| 2026-05-04 10:11 | 51.64429 | 0.88082 | 21458 ft | 382 kts | 165° |
| 2026-05-04 10:12 | 51.61873 | 0.89336 | 22071 ft | 386 kts | 165° |
| 2026-05-04 10:12 | 51.59294 | 0.90593 | 22652 ft | 389 kts | 165° |
| 2026-05-04 10:12 | 51.56692 | 0.91857 | 23211 ft | 392 kts | 165° |
| 2026-05-04 10:12 | 51.54077 | 0.93128 | 23783 ft | 393 kts | 165° |
| 2026-05-04 10:13 | 51.51454 | 0.94399 | 24279 ft | 394 kts | 166° |
| 2026-05-04 10:13 | 51.48825 | 0.95670 | 24795 ft | 395 kts | 166° |
| 2026-05-04 10:13 | 51.46186 | 0.96946 | 25281 ft | 396 kts | 166° |
| 2026-05-04 10:13 | 51.43550 | 0.98217 | 25777 ft | 397 kts | 166° |
| 2026-05-04 10:14 | 51.40896 | 0.99493 | 26256 ft | 398 kts | 166° |
| 2026-05-04 10:14 | 51.38239 | 1.00767 | 26736 ft | 399 kts | 167° |
| 2026-05-04 10:16 | 51.22859 | 1.19803 | 29637 ft | 435 kts | 128° |
| 2026-05-04 10:16 | 51.21207 | 1.23851 | 30030 ft | 437 kts | 128° |
| 2026-05-04 10:16 | 51.19538 | 1.27921 | 30367 ft | 439 kts | 128° |
| 2026-05-04 10:16 | 51.17950 | 1.32114 | 30698 ft | 445 kts | 122° |
| 2026-05-04 10:17 | 51.16755 | 1.36712 | 31010 ft | 454 kts | 112° |
| 2026-05-04 10:17 | 51.16034 | 1.41645 | 31333 ft | 462 kts | 103° |
| 2026-05-04 10:19 | 51.14239 | 1.77429 | 34205 ft | 461 kts | 100° |
| 2026-05-04 10:19 | 51.13977 | 1.82513 | 34527 ft | 460 kts | 99° |
| 2026-05-04 10:19 | 51.13714 | 1.87594 | 34850 ft | 460 kts | 99° |
| 2026-05-04 10:19 | 51.13451 | 1.92672 | 35127 ft | 460 kts | 99° |
| 2026-05-04 10:20 | 51.13186 | 1.97768 | 35406 ft | 461 kts | 99° |
| 2026-05-04 10:20 | 51.12920 | 2.02861 | 35695 ft | 461 kts | 99° |
| 2026-05-04 10:20 | 51.12657 | 2.07876 | 35984 ft | 461 kts | 99° |
| 2026-05-04 10:20 | 51.12388 | 2.12957 | 36271 ft | 460 kts | 99° |
| 2026-05-04 10:21 | 51.12117 | 2.18046 | 36553 ft | 460 kts | 98° |
| 2026-05-04 10:21 | 51.11843 | 2.23132 | 36823 ft | 460 kts | 98° |
| 2026-05-04 10:21 | 51.11567 | 2.28198 | 36985 ft | 461 kts | 98° |
| 2026-05-04 10:21 | 51.11288 | 2.33281 | 37020 ft | 460 kts | 98° |
| 2026-05-04 10:22 | 51.10437 | 2.48484 | 37013 ft | 460 kts | 99° |
| 2026-05-04 10:23 | 51.09850 | 2.58629 | 37013 ft | 460 kts | 99° |
| 2026-05-04 10:25 | 51.00340 | 2.95214 | 37022 ft | 449 kts | 120° |
| 2026-05-04 10:25 | 50.97608 | 3.04140 | 37020 ft | 449 kts | 120° |
| 2026-05-04 10:26 | 50.94870 | 3.13042 | 37016 ft | 449 kts | 120° |
| 2026-05-04 10:26 | 50.92121 | 3.21949 | 37009 ft | 449 kts | 120° |
| 2026-05-04 10:27 | 50.89373 | 3.30827 | 36993 ft | 449 kts | 121° |
| 2026-05-04 10:27 | 50.86611 | 3.39709 | 36993 ft | 450 kts | 121° |
| 2026-05-04 10:28 | 50.83845 | 3.48583 | 36999 ft | 450 kts | 121° |
| 2026-05-04 10:28 | 50.81060 | 3.57467 | 37003 ft | 450 kts | 121° |
| 2026-05-04 10:29 | 50.78270 | 3.66323 | 37010 ft | 450 kts | 121° |
| 2026-05-04 10:29 | 50.75477 | 3.75159 | 37002 ft | 450 kts | 121° |
| 2026-05-04 10:30 | 50.72677 | 3.83997 | 37002 ft | 450 kts | 121° |
| 2026-05-04 10:30 | 50.69879 | 3.92828 | 37016 ft | 450 kts | 121° |
| 2026-05-04 10:31 | 50.67070 | 4.01648 | 37016 ft | 450 kts | 122° |
| 2026-05-04 10:32 | 50.57175 | 4.32410 | 37048 ft | 450 kts | 122° |
| 2026-05-04 10:33 | 50.54335 | 4.41179 | 37043 ft | 450 kts | 122° |
| 2026-05-04 10:33 | 50.51489 | 4.49926 | 37046 ft | 450 kts | 122° |
| 2026-05-04 10:34 | 50.48640 | 4.58670 | 37048 ft | 450 kts | 122° |
| 2026-05-04 10:34 | 50.45785 | 4.67400 | 37038 ft | 450 kts | 122° |
| 2026-05-04 10:35 | 50.42914 | 4.76133 | 37031 ft | 450 kts | 122° |
| 2026-05-04 10:35 | 50.40042 | 4.84858 | 37036 ft | 450 kts | 122° |
| 2026-05-04 10:36 | 50.37159 | 4.93571 | 37036 ft | 450 kts | 122° |
| 2026-05-04 10:36 | 50.34269 | 5.02265 | 37031 ft | 450 kts | 122° |
| 2026-05-04 10:37 | 50.31373 | 5.10947 | 37002 ft | 450 kts | 122° |
| 2026-05-04 10:37 | 50.28487 | 5.19575 | 36997 ft | 451 kts | 123° |
| 2026-05-04 10:39 | 50.18252 | 5.49974 | 37016 ft | 452 kts | 123° |
| 2026-05-04 10:40 | 50.15307 | 5.58647 | 37002 ft | 453 kts | 123° |
| 2026-05-04 10:40 | 50.12356 | 5.67324 | 37025 ft | 453 kts | 123° |